Annville, KY

9:49 AM EDT on August 21, 2014 (GMT -0400)
Southern McKee | Change Station
CLOSE
Current Station
Personal Weather Station
Location: McKee, KY
Elevation: 1138 ft
Nearby Weather Stations

Elev 1138 ft 37.36 °N, 83.94 °W | Updated 0 second ago

Clear
Clear
74.3 °F
Feels Like 72 °F
N
0.0
Wind Variable Wind from SE
Gusts 0.0 mph

Today
High -- | Low -- °F
--% Chance of Precip.
Yesterday
High -- | Low -- °F
Precip. -- in
6:57 AM 8:20 PM
Waning Crescent, 14% visible
Pressure 30.11 in
Visibility 10.0 miles
Clouds Clear
Heat Index 72 °F
Dew Point 72 °F
Humidity 93%
Rainfall 0.00 in
Snow Depth Not available.
UV 2 out of 12
Pollen 8.60 out of 12
Air Quality Not available.
Flu Activity Not available.
METAR KLOZ 211253Z AUTO 20005KT 10SM CLR 22/18 A3014 RMK AO2 SLP196 T02220183

More Conditions Fewer Conditions

Pressure 30.11 in
Visibility 10.0 miles
Clouds Clear
Heat Index 72 °F
Dew Point 72 °F
Humidity 93%
Rainfall 0.00 in
Snow Depth Not available.
UV 2 out of 12
Pollen 8.60 out of 12
Air Quality Not available.
Flu Activity Not available.
METAR KLOZ 211253Z AUTO 20005KT 10SM CLR 22/18 A3014 RMK AO2 SLP196 T02220183

More Conditions Fewer Conditions

10-Day Weather Forecast

Almanac

Astronomy

Aug. 21, 2014 Rise Set
Actual Time 6:57 AM EDT 8:20 PM EDT
Civil Twilight 6:29 AM EDT 8:47 PM EDT
Nautical Twilight 5:57 AM EDT 9:19 PM EDT
Astronomical Twilight 5:22 AM EDT 9:54 PM EDT
Moon 3:28 AM EDT 5:46 PM EDT
Length of Visible Light 14h 17m
Length of Day
13h 22m
Tomorrow will be 2m 11s shorter.
Waning Crescent, 14% of the Moon is Illuminated
Today
Waning Crescent
Aug 25
New
Sep 2
First Quarter
Sep 8
Full
Sep 15
Last Quarter

Today's Extremes

State Highs State Lows

Community

WunderPhotos

Upload Photos

1,745,918 photos uploaded!

WunderBlogs® & News

Nearby

Snow Depth

Station Depth Elevation
No new snow has been reported.

Earthquake Activity

City Distance Mag. Time & Date
No recent earthquake activity has been reported nearby.
Minimum magnitude displayed is 2.5.

Coastal Water Temperatures

Place Temperature
No Stations Reporting

Nearby Weather Stations